sensor_id;sensor_type;location;lat;lon;timestamp;temperature;humidity
27224;DHT22;14965;50.660;13.226;2022-08-07T00:01:36;10.60;99.90
27224;DHT22;14965;50.660;13.226;2022-08-07T00:04:02;10.60;99.90
27224;DHT22;14965;50.660;13.226;2022-08-07T00:06:29;10.60;99.90
27224;DHT22;14965;50.660;13.226;2022-08-07T00:08:55;10.60;99.90
27224;DHT22;14965;50.660;13.226;2022-08-07T00:11:22;10.60;99.90
27224;DHT22;14965;50.660;13.226;2022-08-07T00:13:48;10.50;99.90
27224;DHT22;14965;50.660;13.226;2022-08-07T00:16:13;10.50;99.90
27224;DHT22;14965;50.660;13.226;2022-08-07T00:18:41;10.40;99.90
27224;DHT22;14965;50.660;13.226;2022-08-07T00:21:08;10.40;99.90
27224;DHT22;14965;50.660;13.226;2022-08-07T00:23:36;10.20;99.90
27224;DHT22;14965;50.660;13.226;2022-08-07T00:26:05;10.20;99.90
27224;DHT22;14965;50.660;13.226;2022-08-07T00:28:32;10.20;99.90
27224;DHT22;14965;50.660;13.226;2022-08-07T00:30:58;10.30;99.90
27224;DHT22;14965;50.660;13.226;2022-08-07T00:33:24;10.30;99.90
27224;DHT22;14965;50.660;13.226;2022-08-07T00:35:52;10.30;99.90
27224;DHT22;14965;50.660;13.226;2022-08-07T00:38:18;10.30;99.90
27224;DHT22;14965;50.660;13.226;2022-08-07T00:40:44;10.30;99.90
27224;DHT22;14965;50.660;13.226;2022-08-07T00:43:11;10.30;99.90
27224;DHT22;14965;50.660;13.226;2022-08-07T00:45:37;10.30;99.90
27224;DHT22;14965;50.660;13.226;2022-08-07T00:48:04;10.30;99.90
27224;DHT22;14965;50.660;13.226;2022-08-07T00:50:31;10.20;99.90
27224;DHT22;14965;50.660;13.226;2022-08-07T00:52:58;10.20;99.90
27224;DHT22;14965;50.660;13.226;2022-08-07T00:55:24;10.20;99.90
27224;DHT22;14965;50.660;13.226;2022-08-07T00:57:50;10.20;99.90
27224;DHT22;14965;50.660;13.226;2022-08-07T01:00:17;10.20;99.90
27224;DHT22;14965;50.660;13.226;2022-08-07T01:02:46;10.20;99.90
27224;DHT22;14965;50.660;13.226;2022-08-07T01:05:12;10.20;99.90
27224;DHT22;14965;50.660;13.226;2022-08-07T01:07:38;10.30;99.90
27224;DHT22;14965;50.660;13.226;2022-08-07T01:10:07;10.20;99.90
27224;DHT22;14965;50.660;13.226;2022-08-07T01:12:34;10.20;99.90
27224;DHT22;14965;50.660;13.226;2022-08-07T01:15:00;10.20;99.90
27224;DHT22;14965;50.660;13.226;2022-08-07T01:17:27;10.20;99.90
27224;DHT22;14965;50.660;13.226;2022-08-07T01:20:00;10.20;99.90
27224;DHT22;14965;50.660;13.226;2022-08-07T01:22:30;10.10;99.90
27224;DHT22;14965;50.660;13.226;2022-08-07T01:24:57;10.00;99.90
27224;DHT22;14965;50.660;13.226;2022-08-07T01:27:24;9.90;99.90
27224;DHT22;14965;50.660;13.226;2022-08-07T01:29:50;9.90;99.90
27224;DHT22;14965;50.660;13.226;2022-08-07T01:32:16;9.90;99.90
27224;DHT22;14965;50.660;13.226;2022-08-07T01:34:43;10.00;99.90
27224;DHT22;14965;50.660;13.226;2022-08-07T01:37:11;10.00;99.90
27224;DHT22;14965;50.660;13.226;2022-08-07T01:39:38;10.00;99.90
27224;DHT22;14965;50.660;13.226;2022-08-07T01:42:05;10.00;99.90
27224;DHT22;14965;50.660;13.226;2022-08-07T01:44:31;10.00;99.90
27224;DHT22;14965;50.660;13.226;2022-08-07T01:46:57;9.90;99.90
27224;DHT22;14965;50.660;13.226;2022-08-07T01:49:23;9.90;99.90
27224;DHT22;14965;50.660;13.226;2022-08-07T01:51:49;9.80;99.90
27224;DHT22;14965;50.660;13.226;2022-08-07T01:54:18;9.80;99.90
27224;DHT22;14965;50.660;13.226;2022-08-07T01:56:49;9.80;99.90
27224;DHT22;14965;50.660;13.226;2022-08-07T01:59:22;9.70;99.90
27224;DHT22;14965;50.660;13.226;2022-08-07T02:01:54;9.60;99.90
27224;DHT22;14965;50.660;13.226;2022-08-07T02:04:27;9.60;99.90
27224;DHT22;14965;50.660;13.226;2022-08-07T02:06:57;9.60;99.90
27224;DHT22;14965;50.660;13.226;2022-08-07T02:09:28;9.50;99.90
27224;DHT22;14965;50.660;13.226;2022-08-07T02:11:57;9.50;99.90
27224;DHT22;14965;50.660;13.226;2022-08-07T02:14:26;9.50;99.90
27224;DHT22;14965;50.660;13.226;2022-08-07T02:16:54;9.60;99.90
27224;DHT22;14965;50.660;13.226;2022-08-07T02:19:21;9.60;99.90
27224;DHT22;14965;50.660;13.226;2022-08-07T02:21:49;9.60;99.90
27224;DHT22;14965;50.660;13.226;2022-08-07T02:24:17;9.60;99.90
27224;DHT22;14965;50.660;13.226;2022-08-07T02:26:43;9.60;99.90
27224;DHT22;14965;50.660;13.226;2022-08-07T02:29:13;9.70;99.90
27224;DHT22;14965;50.660;13.226;2022-08-07T02:31:40;9.70;99.90
27224;DHT22;14965;50.660;13.226;2022-08-07T02:34:07;9.70;99.90
27224;DHT22;14965;50.660;13.226;2022-08-07T02:36:34;9.60;99.90
27224;DHT22;14965;50.660;13.226;2022-08-07T02:39:03;9.60;99.90
27224;DHT22;14965;50.660;13.226;2022-08-07T02:41:31;9.50;99.90
27224;DHT22;14965;50.660;13.226;2022-08-07T02:43:59;9.50;99.90
27224;DHT22;14965;50.660;13.226;2022-08-07T02:46:29;9.50;99.90
27224;DHT22;14965;50.660;13.226;2022-08-07T02:48:58;9.50;99.90
27224;DHT22;14965;50.660;13.226;2022-08-07T02:51:24;9.50;99.90
27224;DHT22;14965;50.660;13.226;2022-08-07T02:53:53;9.40;99.90
27224;DHT22;14965;50.660;13.226;2022-08-07T02:56:25;9.30;99.90
27224;DHT22;14965;50.660;13.226;2022-08-07T02:58:55;9.30;99.90
27224;DHT22;14965;50.660;13.226;2022-08-07T03:01:28;9.30;99.90
27224;DHT22;14965;50.660;13.226;2022-08-07T03:03:56;9.30;99.90
27224;DHT22;14965;50.660;13.226;2022-08-07T03:06:24;9.20;99.90
27224;DHT22;14965;50.660;13.226;2022-08-07T03:08:51;9.20;99.90
27224;DHT22;14965;50.660;13.226;2022-08-07T03:11:19;9.10;99.90
27224;DHT22;14965;50.660;13.226;2022-08-07T03:13:45;9.10;99.90
27224;DHT22;14965;50.660;13.226;2022-08-07T03:16:11;9.10;99.90
27224;DHT22;14965;50.660;13.226;2022-08-07T03:18:39;9.10;99.90
27224;DHT22;14965;50.660;13.226;2022-08-07T03:21:06;9.10;99.90
27224;DHT22;14965;50.660;13.226;2022-08-07T03:23:33;9.20;99.90
27224;DHT22;14965;50.660;13.226;2022-08-07T03:26:02;9.20;99.90
27224;DHT22;14965;50.660;13.226;2022-08-07T03:28:33;9.20;99.90
27224;DHT22;14965;50.660;13.226;2022-08-07T03:31:01;9.10;99.90
27224;DHT22;14965;50.660;13.226;2022-08-07T03:33:28;9.00;99.90
27224;DHT22;14965;50.660;13.226;2022-08-07T03:35:56;9.00;99.90
27224;DHT22;14965;50.660;13.226;2022-08-07T03:38:21;8.90;99.90
27224;DHT22;14965;50.660;13.226;2022-08-07T03:40:49;8.90;99.90
27224;DHT22;14965;50.660;13.226;2022-08-07T03:43:15;8.90;99.90
27224;DHT22;14965;50.660;13.226;2022-08-07T03:45:42;8.90;99.90
27224;DHT22;14965;50.660;13.226;2022-08-07T03:48:09;8.90;99.90
27224;DHT22;14965;50.660;13.226;2022-08-07T03:50:35;8.80;99.90
27224;DHT22;14965;50.660;13.226;2022-08-07T03:53:03;8.80;99.90
27224;DHT22;14965;50.660;13.226;2022-08-07T03:55:31;8.80;99.90
27224;DHT22;14965;50.660;13.226;2022-08-07T03:57:58;8.80;99.90
27224;DHT22;14965;50.660;13.226;2022-08-07T04:00:25;8.80;99.90
27224;DHT22;14965;50.660;13.226;2022-08-07T04:02:53;8.80;99.90
27224;DHT22;14965;50.660;13.226;2022-08-07T04:05:19;8.80;99.90
27224;DHT22;14965;50.660;13.226;2022-08-07T04:07:46;8.80;99.90
27224;DHT22;14965;50.660;13.226;2022-08-07T04:10:14;8.90;99.90
27224;DHT22;14965;50.660;13.226;2022-08-07T04:12:40;9.00;99.90
27224;DHT22;14965;50.660;13.226;2022-08-07T04:15:08;9.00;99.90
27224;DHT22;14965;50.660;13.226;2022-08-07T04:17:34;9.10;99.90
27224;DHT22;14965;50.660;13.226;2022-08-07T04:20:00;9.20;99.90
27224;DHT22;14965;50.660;13.226;2022-08-07T04:22:26;9.20;99.90
27224;DHT22;14965;50.660;13.226;2022-08-07T04:24:52;9.20;99.90
27224;DHT22;14965;50.660;13.226;2022-08-07T04:27:20;9.20;99.90
27224;DHT22;14965;50.660;13.226;2022-08-07T04:29:46;9.20;99.90
27224;DHT22;14965;50.660;13.226;2022-08-07T04:32:12;9.20;99.90
27224;DHT22;14965;50.660;13.226;2022-08-07T04:34:38;9.20;99.90
27224;DHT22;14965;50.660;13.226;2022-08-07T04:37:04;9.20;99.90
27224;DHT22;14965;50.660;13.226;2022-08-07T04:39:30;9.40;99.90
27224;DHT22;14965;50.660;13.226;2022-08-07T04:41:56;9.80;99.90
27224;DHT22;14965;50.660;13.226;2022-08-07T04:44:23;10.70;99.90
27224;DHT22;14965;50.660;13.226;2022-08-07T04:46:57;12.00;99.90
27224;DHT22;14965;50.660;13.226;2022-08-07T04:49:32;13.30;99.90
27224;DHT22;14965;50.660;13.226;2022-08-07T04:52:11;14.70;99.90
27224;DHT22;14965;50.660;13.226;2022-08-07T04:54:53;16.00;99.90
27224;DHT22;14965;50.660;13.226;2022-08-07T04:57:28;17.10;99.90
27224;DHT22;14965;50.660;13.226;2022-08-07T05:00:03;18.10;99.90
27224;DHT22;14965;50.660;13.226;2022-08-07T05:02:34;18.80;99.00
27224;DHT22;14965;50.660;13.226;2022-08-07T05:05:16;19.50;96.50
27224;DHT22;14965;50.660;13.226;2022-08-07T05:07:52;20.00;94.40
27224;DHT22;14965;50.660;13.226;2022-08-07T05:10:28;20.60;92.50
27224;DHT22;14965;50.660;13.226;2022-08-07T05:13:02;21.20;90.50
27224;DHT22;14965;50.660;13.226;2022-08-07T05:15:38;21.70;88.00
27224;DHT22;14965;50.660;13.226;2022-08-07T05:18:17;22.20;84.70
27224;DHT22;14965;50.660;13.226;2022-08-07T05:20:48;22.30;81.40
27224;DHT22;14965;50.660;13.226;2022-08-07T05:23:19;22.50;80.00
27224;DHT22;14965;50.660;13.226;2022-08-07T05:25:51;22.60;78.70
27224;DHT22;14965;50.660;13.226;2022-08-07T05:28:19;23.00;77.30
27224;DHT22;14965;50.660;13.226;2022-08-07T05:30:48;23.60;74.60
27224;DHT22;14965;50.660;13.226;2022-08-07T05:33:15;24.10;72.00
27224;DHT22;14965;50.660;13.226;2022-08-07T05:35:42;24.40;70.10
27224;DHT22;14965;50.660;13.226;2022-08-07T05:38:09;24.60;68.70
27224;DHT22;14965;50.660;13.226;2022-08-07T05:40:37;24.90;67.20
27224;DHT22;14965;50.660;13.226;2022-08-07T05:43:05;25.00;66.50
27224;DHT22;14965;50.660;13.226;2022-08-07T05:45:36;25.20;65.60
27224;DHT22;14965;50.660;13.226;2022-08-07T05:48:06;25.50;65.00
27224;DHT22;14965;50.660;13.226;2022-08-07T05:50:33;25.90;63.30
27224;DHT22;14965;50.660;13.226;2022-08-07T05:52:59;26.30;62.20
27224;DHT22;14965;50.660;13.226;2022-08-07T05:55:25;26.70;60.00
27224;DHT22;14965;50.660;13.226;2022-08-07T05:57:53;26.80;59.60
27224;DHT22;14965;50.660;13.226;2022-08-07T06:00:32;27.00;59.40
27224;DHT22;14965;50.660;13.226;2022-08-07T06:03:00;27.10;58.70
27224;DHT22;14965;50.660;13.226;2022-08-07T06:05:31;27.00;58.40
27224;DHT22;14965;50.660;13.226;2022-08-07T06:07:59;27.20;58.90
27224;DHT22;14965;50.660;13.226;2022-08-07T06:10:26;27.10;59.00
27224;DHT22;14965;50.660;13.226;2022-08-07T06:12:52;26.60;59.30
27224;DHT22;14965;50.660;13.226;2022-08-07T06:15:19;26.10;61.00
27224;DHT22;14965;50.660;13.226;2022-08-07T06:17:46;25.60;61.10
27224;DHT22;14965;50.660;13.226;2022-08-07T06:20:13;25.00;62.30
27224;DHT22;14965;50.660;13.226;2022-08-07T06:22:41;24.50;63.50
27224;DHT22;14965;50.660;13.226;2022-08-07T06:25:10;24.00;63.30
27224;DHT22;14965;50.660;13.226;2022-08-07T06:27:36;23.60;65.20
27224;DHT22;14965;50.660;13.226;2022-08-07T06:30:02;23.50;66.50
27224;DHT22;14965;50.660;13.226;2022-08-07T06:32:29;23.50;66.10
27224;DHT22;14965;50.660;13.226;2022-08-07T06:34:55;23.30;68.00
27224;DHT22;14965;50.660;13.226;2022-08-07T06:37:21;23.40;66.90
27224;DHT22;14965;50.660;13.226;2022-08-07T06:39:48;23.10;69.00
27224;DHT22;14965;50.660;13.226;2022-08-07T06:42:17;22.60;70.60
27224;DHT22;14965;50.660;13.226;2022-08-07T06:44:46;22.00;73.10
27224;DHT22;14965;50.660;13.226;2022-08-07T06:47:14;21.50;75.20
27224;DHT22;14965;50.660;13.226;2022-08-07T06:49:41;20.90;77.20
27224;DHT22;14965;50.660;13.226;2022-08-07T06:52:07;20.40;79.90
27224;DHT22;14965;50.660;13.226;2022-08-07T06:54:36;19.90;81.90
27224;DHT22;14965;50.660;13.226;2022-08-07T06:57:06;19.70;84.70
27224;DHT22;14965;50.660;13.226;2022-08-07T06:59:35;19.60;83.30
27224;DHT22;14965;50.660;13.226;2022-08-07T07:02:06;19.60;77.40
27224;DHT22;14965;50.660;13.226;2022-08-07T07:04:37;19.60;76.70
27224;DHT22;14965;50.660;13.226;2022-08-07T07:07:03;19.70;78.50
27224;DHT22;14965;50.660;13.226;2022-08-07T07:09:30;19.70;78.60
27224;DHT22;14965;50.660;13.226;2022-08-07T07:12:18;19.80;76.80
27224;DHT22;14965;50.660;13.226;2022-08-07T07:14:55;19.90;76.00
27224;DHT22;14965;50.660;13.226;2022-08-07T07:17:33;20.20;75.10
27224;DHT22;14965;50.660;13.226;2022-08-07T07:20:10;20.00;74.40
27224;DHT22;14965;50.660;13.226;2022-08-07T07:22:40;19.90;74.40
27224;DHT22;14965;50.660;13.226;2022-08-07T07:25:08;20.10;75.40
27224;DHT22;14965;50.660;13.226;2022-08-07T07:27:41;20.40;74.80
27224;DHT22;14965;50.660;13.226;2022-08-07T07:30:12;20.50;73.90
27224;DHT22;14965;50.660;13.226;2022-08-07T07:32:40;20.60;71.30
27224;DHT22;14965;50.660;13.226;2022-08-07T07:35:09;20.50;70.60
27224;DHT22;14965;50.660;13.226;2022-08-07T07:37:37;20.50;73.20
27224;DHT22;14965;50.660;13.226;2022-08-07T07:40:09;20.90;71.00
27224;DHT22;14965;50.660;13.226;2022-08-07T07:42:42;20.90;69.20
27224;DHT22;14965;50.660;13.226;2022-08-07T07:45:09;20.90;68.80
27224;DHT22;14965;50.660;13.226;2022-08-07T07:47:40;20.90;69.00
27224;DHT22;14965;50.660;13.226;2022-08-07T07:50:08;20.60;69.50
27224;DHT22;14965;50.660;13.226;2022-08-07T07:52:40;20.60;71.40
27224;DHT22;14965;50.660;13.226;2022-08-07T07:55:09;20.60;69.20
27224;DHT22;14965;50.660;13.226;2022-08-07T07:57:35;20.80;68.60
27224;DHT22;14965;50.660;13.226;2022-08-07T08:00:04;20.90;68.10
27224;DHT22;14965;50.660;13.226;2022-08-07T08:02:32;20.80;68.90
27224;DHT22;14965;50.660;13.226;2022-08-07T08:05:00;20.80;68.50
27224;DHT22;14965;50.660;13.226;2022-08-07T08:07:28;20.90;69.40
27224;DHT22;14965;50.660;13.226;2022-08-07T08:09:56;21.20;67.30
27224;DHT22;14965;50.660;13.226;2022-08-07T08:12:24;21.30;66.50
27224;DHT22;14965;50.660;13.226;2022-08-07T08:14:50;21.00;66.10
27224;DHT22;14965;50.660;13.226;2022-08-07T08:17:19;21.00;65.90
27224;DHT22;14965;50.660;13.226;2022-08-07T08:19:50;20.60;67.00
27224;DHT22;14965;50.660;13.226;2022-08-07T08:22:20;20.60;63.60
27224;DHT22;14965;50.660;13.226;2022-08-07T08:24:51;20.50;65.90
27224;DHT22;14965;50.660;13.226;2022-08-07T08:27:19;20.60;69.90
27224;DHT22;14965;50.660;13.226;2022-08-07T08:29:49;20.90;67.30
27224;DHT22;14965;50.660;13.226;2022-08-07T08:32:20;21.30;65.20
27224;DHT22;14965;50.660;13.226;2022-08-07T08:34:51;21.40;66.50
27224;DHT22;14965;50.660;13.226;2022-08-07T08:37:19;21.70;65.50
27224;DHT22;14965;50.660;13.226;2022-08-07T08:39:49;21.80;65.30
27224;DHT22;14965;50.660;13.226;2022-08-07T08:42:22;21.60;64.30
27224;DHT22;14965;50.660;13.226;2022-08-07T08:44:58;21.50;65.90
27224;DHT22;14965;50.660;13.226;2022-08-07T08:47:37;21.40;67.80
27224;DHT22;14965;50.660;13.226;2022-08-07T08:50:13;20.80;67.90
27224;DHT22;14965;50.660;13.226;2022-08-07T08:52:50;20.30;68.90
27224;DHT22;14965;50.660;13.226;2022-08-07T08:55:26;19.90;72.10
27224;DHT22;14965;50.660;13.226;2022-08-07T08:58:02;19.90;70.40
27224;DHT22;14965;50.660;13.226;2022-08-07T09:00:39;20.00;70.20
27224;DHT22;14965;50.660;13.226;2022-08-07T09:03:14;19.90;68.80
27224;DHT22;14965;50.660;13.226;2022-08-07T09:05:53;19.80;70.50
27224;DHT22;14965;50.660;13.226;2022-08-07T09:08:31;19.50;70.20
27224;DHT22;14965;50.660;13.226;2022-08-07T09:11:14;19.70;71.80
27224;DHT22;14965;50.660;13.226;2022-08-07T09:13:59;20.10;71.20
27224;DHT22;14965;50.660;13.226;2022-08-07T09:16:43;20.50;69.90
27224;DHT22;14965;50.660;13.226;2022-08-07T09:19:34;20.50;68.90
27224;DHT22;14965;50.660;13.226;2022-08-07T09:22:20;20.70;69.00
27224;DHT22;14965;50.660;13.226;2022-08-07T09:25:05;20.90;70.30
27224;DHT22;14965;50.660;13.226;2022-08-07T09:27:41;21.50;67.70
27224;DHT22;14965;50.660;13.226;2022-08-07T09:30:11;21.90;66.10
27224;DHT22;14965;50.660;13.226;2022-08-07T09:32:59;22.10;68.60
27224;DHT22;14965;50.660;13.226;2022-08-07T09:35:39;22.00;65.80
27224;DHT22;14965;50.660;13.226;2022-08-07T09:38:15;21.90;64.70
27224;DHT22;14965;50.660;13.226;2022-08-07T09:40:59;21.70;65.60
27224;DHT22;14965;50.660;13.226;2022-08-07T09:43:40;21.70;66.70
27224;DHT22;14965;50.660;13.226;2022-08-07T09:46:27;21.60;68.20
27224;DHT22;14965;50.660;13.226;2022-08-07T09:52:15;21.90;66.00
27224;DHT22;14965;50.660;13.226;2022-08-07T09:54:47;22.10;63.90
27224;DHT22;14965;50.660;13.226;2022-08-07T09:57:52;22.20;64.30
27224;DHT22;14965;50.660;13.226;2022-08-07T10:00:47;21.80;65.20
27224;DHT22;14965;50.660;13.226;2022-08-07T10:03:35;21.30;65.30
27224;DHT22;14965;50.660;13.226;2022-08-07T10:06:30;20.80;69.70
27224;DHT22;14965;50.660;13.226;2022-08-07T10:09:28;20.70;68.40
27224;DHT22;14965;50.660;13.226;2022-08-07T10:12:11;20.70;67.60
27224;DHT22;14965;50.660;13.226;2022-08-07T10:15:03;21.00;69.50
27224;DHT22;14965;50.660;13.226;2022-08-07T10:17:58;21.70;68.50
27224;DHT22;14965;50.660;13.226;2022-08-07T10:20:48;22.10;66.70
27224;DHT22;14965;50.660;13.226;2022-08-07T10:23:41;22.50;65.80
27224;DHT22;14965;50.660;13.226;2022-08-07T10:26:29;22.40;63.90
27224;DHT22;14965;50.660;13.226;2022-08-07T10:29:20;22.00;63.90
27224;DHT22;14965;50.660;13.226;2022-08-07T10:32:09;21.80;65.20
27224;DHT22;14965;50.660;13.226;2022-08-07T10:34:56;21.80;66.70
27224;DHT22;14965;50.660;13.226;2022-08-07T10:37:42;22.00;67.30
27224;DHT22;14965;50.660;13.226;2022-08-07T10:40:23;22.30;65.30
27224;DHT22;14965;50.660;13.226;2022-08-07T10:43:00;22.30;62.40
27224;DHT22;14965;50.660;13.226;2022-08-07T10:45:36;22.30;64.30
27224;DHT22;14965;50.660;13.226;2022-08-07T10:48:13;22.00;64.70
27224;DHT22;14965;50.660;13.226;2022-08-07T10:50:52;21.80;63.00
27224;DHT22;14965;50.660;13.226;2022-08-07T10:53:25;22.00;65.20
27224;DHT22;14965;50.660;13.226;2022-08-07T10:56:02;22.40;64.70
27224;DHT22;14965;50.660;13.226;2022-08-07T10:58:46;22.50;66.10
27224;DHT22;14965;50.660;13.226;2022-08-07T11:01:34;22.30;64.10
27224;DHT22;14965;50.660;13.226;2022-08-07T11:04:09;22.50;66.80
27224;DHT22;14965;50.660;13.226;2022-08-07T11:06:49;22.50;64.60
27224;DHT22;14965;50.660;13.226;2022-08-07T11:09:30;22.40;62.40
27224;DHT22;14965;50.660;13.226;2022-08-07T11:12:03;22.40;63.10
27224;DHT22;14965;50.660;13.226;2022-08-07T11:14:40;22.30;66.40
27224;DHT22;14965;50.660;13.226;2022-08-07T11:17:16;22.20;65.10
27224;DHT22;14965;50.660;13.226;2022-08-07T11:19:49;22.00;67.10
27224;DHT22;14965;50.660;13.226;2022-08-07T11:22:25;21.70;67.00
27224;DHT22;14965;50.660;13.226;2022-08-07T11:25:03;21.40;65.80
27224;DHT22;14965;50.660;13.226;2022-08-07T11:27:41;21.20;67.10
27224;DHT22;14965;50.660;13.226;2022-08-07T11:30:17;21.40;64.90
27224;DHT22;14965;50.660;13.226;2022-08-07T11:32:49;21.70;65.40
27224;DHT22;14965;50.660;13.226;2022-08-07T11:35:20;21.70;64.30
27224;DHT22;14965;50.660;13.226;2022-08-07T11:38:00;21.40;64.00
27224;DHT22;14965;50.660;13.226;2022-08-07T11:40:50;21.30;66.20
27224;DHT22;14965;50.660;13.226;2022-08-07T11:43:24;21.30;67.60
27224;DHT22;14965;50.660;13.226;2022-08-07T11:46:08;21.40;66.60
27224;DHT22;14965;50.660;13.226;2022-08-07T11:49:01;21.60;66.30
27224;DHT22;14965;50.660;13.226;2022-08-07T11:51:49;21.80;66.30
27224;DHT22;14965;50.660;13.226;2022-08-07T11:54:47;22.00;65.70
27224;DHT22;14965;50.660;13.226;2022-08-07T11:57:35;22.20;67.90
27224;DHT22;14965;50.660;13.226;2022-08-07T12:00:11;22.40;64.90
27224;DHT22;14965;50.660;13.226;2022-08-07T12:03:14;22.50;66.30
27224;DHT22;14965;50.660;13.226;2022-08-07T12:06:11;22.50;65.70
27224;DHT22;14965;50.660;13.226;2022-08-07T12:08:52;22.50;64.30
27224;DHT22;14965;50.660;13.226;2022-08-07T12:11:25;22.20;63.80
27224;DHT22;14965;50.660;13.226;2022-08-07T12:13:59;22.20;63.50
27224;DHT22;14965;50.660;13.226;2022-08-07T12:16:30;22.20;66.70
27224;DHT22;14965;50.660;13.226;2022-08-07T12:19:10;22.40;65.10
27224;DHT22;14965;50.660;13.226;2022-08-07T12:21:54;22.30;63.90
27224;DHT22;14965;50.660;13.226;2022-08-07T12:24:29;22.40;65.50
27224;DHT22;14965;50.660;13.226;2022-08-07T12:27:04;22.50;64.50
27224;DHT22;14965;50.660;13.226;2022-08-07T12:29:37;22.40;67.20
27224;DHT22;14965;50.660;13.226;2022-08-07T12:32:13;22.50;65.40
27224;DHT22;14965;50.660;13.226;2022-08-07T12:34:46;22.30;64.20
27224;DHT22;14965;50.660;13.226;2022-08-07T12:37:15;22.20;62.40
27224;DHT22;14965;50.660;13.226;2022-08-07T12:39:43;21.90;62.20
27224;DHT22;14965;50.660;13.226;2022-08-07T12:42:15;21.80;61.70
27224;DHT22;14965;50.660;13.226;2022-08-07T12:44:46;21.80;62.90
27224;DHT22;14965;50.660;13.226;2022-08-07T12:47:20;21.60;63.00
27224;DHT22;14965;50.660;13.226;2022-08-07T12:50:03;21.60;60.30
27224;DHT22;14965;50.660;13.226;2022-08-07T12:52:40;21.60;61.30
27224;DHT22;14965;50.660;13.226;2022-08-07T12:55:17;21.80;61.00
27224;DHT22;14965;50.660;13.226;2022-08-07T12:57:47;21.80;63.80
27224;DHT22;14965;50.660;13.226;2022-08-07T13:00:14;21.80;64.70
27224;DHT22;14965;50.660;13.226;2022-08-07T13:02:55;21.90;63.40
27224;DHT22;14965;50.660;13.226;2022-08-07T13:05:52;22.00;62.20
27224;DHT22;14965;50.660;13.226;2022-08-07T13:08:37;22.20;63.90
27224;DHT22;14965;50.660;13.226;2022-08-07T13:11:24;22.20;63.00
27224;DHT22;14965;50.660;13.226;2022-08-07T13:14:11;22.30;61.50
27224;DHT22;14965;50.660;13.226;2022-08-07T13:16:50;22.30;62.70
27224;DHT22;14965;50.660;13.226;2022-08-07T13:19:41;22.50;63.70
27224;DHT22;14965;50.660;13.226;2022-08-07T13:22:19;22.60;61.40
27224;DHT22;14965;50.660;13.226;2022-08-07T13:24:53;22.50;62.10
27224;DHT22;14965;50.660;13.226;2022-08-07T13:27:28;22.40;66.30
27224;DHT22;14965;50.660;13.226;2022-08-07T13:30:03;22.30;61.60
27224;DHT22;14965;50.660;13.226;2022-08-07T13:32:37;22.00;63.10
27224;DHT22;14965;50.660;13.226;2022-08-07T13:35:23;21.80;62.80
27224;DHT22;14965;50.660;13.226;2022-08-07T13:38:00;21.70;64.00
27224;DHT22;14965;50.660;13.226;2022-08-07T13:40:42;21.70;63.10
27224;DHT22;14965;50.660;13.226;2022-08-07T13:43:14;21.70;63.30
27224;DHT22;14965;50.660;13.226;2022-08-07T13:45:44;21.60;62.20
27224;DHT22;14965;50.660;13.226;2022-08-07T13:48:12;21.50;62.10
27224;DHT22;14965;50.660;13.226;2022-08-07T13:50:40;21.50;62.90
27224;DHT22;14965;50.660;13.226;2022-08-07T13:53:09;21.50;62.50
27224;DHT22;14965;50.660;13.226;2022-08-07T13:55:42;21.60;64.00
27224;DHT22;14965;50.660;13.226;2022-08-07T13:58:10;21.60;63.50
27224;DHT22;14965;50.660;13.226;2022-08-07T14:00:40;21.60;64.50
27224;DHT22;14965;50.660;13.226;2022-08-07T14:03:07;21.70;63.10
27224;DHT22;14965;50.660;13.226;2022-08-07T14:05:33;21.90;63.20
27224;DHT22;14965;50.660;13.226;2022-08-07T14:08:01;22.00;62.70
27224;DHT22;14965;50.660;13.226;2022-08-07T14:10:34;21.90;66.80
27224;DHT22;14965;50.660;13.226;2022-08-07T14:13:01;21.90;65.00
27224;DHT22;14965;50.660;13.226;2022-08-07T14:15:32;21.90;66.10
27224;DHT22;14965;50.660;13.226;2022-08-07T14:18:05;22.00;65.50
27224;DHT22;14965;50.660;13.226;2022-08-07T14:20:36;22.10;64.70
27224;DHT22;14965;50.660;13.226;2022-08-07T14:23:14;22.10;64.90
27224;DHT22;14965;50.660;13.226;2022-08-07T14:25:45;22.30;64.40
27224;DHT22;14965;50.660;13.226;2022-08-07T14:28:19;22.40;62.90
27224;DHT22;14965;50.660;13.226;2022-08-07T14:30:48;22.50;63.90
27224;DHT22;14965;50.660;13.226;2022-08-07T14:33:16;22.60;60.90
27224;DHT22;14965;50.660;13.226;2022-08-07T14:35:44;22.50;62.90
27224;DHT22;14965;50.660;13.226;2022-08-07T14:38:11;22.40;62.30
27224;DHT22;14965;50.660;13.226;2022-08-07T14:40:40;22.30;61.00
27224;DHT22;14965;50.660;13.226;2022-08-07T14:43:11;22.00;62.20
27224;DHT22;14965;50.660;13.226;2022-08-07T14:45:41;21.80;63.40
27224;DHT22;14965;50.660;13.226;2022-08-07T14:48:12;21.70;63.90
27224;DHT22;14965;50.660;13.226;2022-08-07T14:50:42;21.50;63.10
27224;DHT22;14965;50.660;13.226;2022-08-07T14:53:11;21.50;64.00
27224;DHT22;14965;50.660;13.226;2022-08-07T14:55:41;21.50;64.00
27224;DHT22;14965;50.660;13.226;2022-08-07T14:58:10;21.30;64.00
27224;DHT22;14965;50.660;13.226;2022-08-07T15:00:41;21.30;64.70
27224;DHT22;14965;50.660;13.226;2022-08-07T15:03:09;21.40;64.20
27224;DHT22;14965;50.660;13.226;2022-08-07T15:05:37;21.30;63.90
27224;DHT22;14965;50.660;13.226;2022-08-07T15:08:07;21.30;63.10
27224;DHT22;14965;50.660;13.226;2022-08-07T15:10:39;21.20;63.40
27224;DHT22;14965;50.660;13.226;2022-08-07T15:13:16;21.20;63.00
27224;DHT22;14965;50.660;13.226;2022-08-07T15:15:46;21.30;64.30
27224;DHT22;14965;50.660;13.226;2022-08-07T15:18:19;21.50;63.90
27224;DHT22;14965;50.660;13.226;2022-08-07T15:20:48;21.60;64.80
27224;DHT22;14965;50.660;13.226;2022-08-07T15:23:18;21.70;63.20
27224;DHT22;14965;50.660;13.226;2022-08-07T15:25:52;21.70;63.50
27224;DHT22;14965;50.660;13.226;2022-08-07T15:28:23;21.70;62.50
27224;DHT22;14965;50.660;13.226;2022-08-07T15:30:54;21.70;63.20
27224;DHT22;14965;50.660;13.226;2022-08-07T15:33:26;21.80;64.90
27224;DHT22;14965;50.660;13.226;2022-08-07T15:36:04;21.80;63.30
27224;DHT22;14965;50.660;13.226;2022-08-07T15:38:36;21.90;64.70
27224;DHT22;14965;50.660;13.226;2022-08-07T15:41:09;21.80;65.30
27224;DHT22;14965;50.660;13.226;2022-08-07T15:43:41;21.80;63.20
27224;DHT22;14965;50.660;13.226;2022-08-07T15:46:16;21.80;63.40
27224;DHT22;14965;50.660;13.226;2022-08-07T15:48:48;21.80;63.30
27224;DHT22;14965;50.660;13.226;2022-08-07T15:51:21;21.70;63.80
27224;DHT22;14965;50.660;13.226;2022-08-07T15:53:55;21.70;62.70
27224;DHT22;14965;50.660;13.226;2022-08-07T15:56:49;21.60;62.90